sensor_id;sensor_type;location;lat;lon;timestamp;pressure;altitude;pressure_sealevel;temperature;humidity
75146;BME280;63641;46.526;24.612;2022-12-18T00:02:15;98185.44;;;2.49;76.16
75146;BME280;63641;46.526;24.612;2022-12-18T00:04:42;98173.31;;;2.46;76.25
75146;BME280;63641;46.526;24.612;2022-12-18T00:07:08;98180.50;;;2.46;76.39
75146;BME280;63641;46.526;24.612;2022-12-18T00:09:35;98178.88;;;2.45;76.13
75146;BME280;63641;46.526;24.612;2022-12-18T00:12:06;98179.28;;;2.41;76.15
75146;BME280;63641;46.526;24.612;2022-12-18T00:14:41;98184.44;;;2.43;76.29
75146;BME280;63641;46.526;24.612;2022-12-18T00:17:08;98195.31;;;2.41;76.15
75146;BME280;63641;46.526;24.612;2022-12-18T00:19:35;98178.06;;;2.31;76.40
75146;BME280;63641;46.526;24.612;2022-12-18T00:22:02;98194.50;;;2.41;76.23
75146;BME280;63641;46.526;24.612;2022-12-18T00:24:29;98201.47;;;2.42;75.97
75146;BME280;63641;46.526;24.612;2022-12-18T00:26:55;98211.34;;;2.41;76.24
75146;BME280;63641;46.526;24.612;2022-12-18T00:29:22;98215.03;;;2.40;76.00
75146;BME280;63641;46.526;24.612;2022-12-18T00:31:49;98218.75;;;2.39;76.01
75146;BME280;63641;46.526;24.612;2022-12-18T00:34:16;98215.47;;;2.37;75.90
75146;BME280;63641;46.526;24.612;2022-12-18T00:36:42;98230.25;;;2.33;76.02
75146;BME280;63641;46.526;24.612;2022-12-18T00:39:10;98219.16;;;2.30;76.26
75146;BME280;63641;46.526;24.612;2022-12-18T00:41:38;98225.31;;;2.24;76.04
75146;BME280;63641;46.526;24.612;2022-12-18T00:44:23;98236.81;;;2.24;76.25
75146;BME280;63641;46.526;24.612;2022-12-18T00:46:50;98241.56;;;2.22;76.01
75146;BME280;63641;46.526;24.612;2022-12-18T00:49:18;98247.09;;;2.21;76.12
75146;BME280;63641;46.526;24.612;2022-12-18T00:51:46;98243.00;;;2.18;75.91
75146;BME280;63641;46.526;24.612;2022-12-18T00:54:13;98252.22;;;2.15;75.90
75146;BME280;63641;46.526;24.612;2022-12-18T00:56:40;98250.38;;;2.09;75.85
75146;BME280;63641;46.526;24.612;2022-12-18T00:59:18;98248.50;;;2.10;75.93
75146;BME280;63641;46.526;24.612;2022-12-18T01:01:45;98259.00;;;2.05;76.11
75146;BME280;63641;46.526;24.612;2022-12-18T01:04:13;98259.19;;;2.03;76.01
75146;BME280;63641;46.526;24.612;2022-12-18T01:06:40;98264.72;;;2.02;76.10
75146;BME280;63641;46.526;24.612;2022-12-18T01:09:07;98260.63;;;1.99;75.97
75146;BME280;63641;46.526;24.612;2022-12-18T01:11:33;98264.53;;;1.97;76.03
75146;BME280;63641;46.526;24.612;2022-12-18T01:14:00;98260.41;;;1.94;75.96
75146;BME280;63641;46.526;24.612;2022-12-18T01:16:27;98267.59;;;1.93;76.28
75146;BME280;63641;46.526;24.612;2022-12-18T01:18:54;98265.75;;;1.94;76.05
75146;BME280;63641;46.526;24.612;2022-12-18T01:21:22;98273.75;;;1.94;75.93
75146;BME280;63641;46.526;24.612;2022-12-18T01:23:54;98286.06;;;1.95;76.25
75146;BME280;63641;46.526;24.612;2022-12-18T01:26:22;98276.41;;;1.94;76.05
75146;BME280;63641;46.526;24.612;2022-12-18T01:28:50;98285.06;;;1.96;76.18
75146;BME280;63641;46.526;24.612;2022-12-18T01:31:25;98294.06;;;1.95;75.96
75146;BME280;63641;46.526;24.612;2022-12-18T01:33:53;98294.06;;;1.95;76.17
75146;BME280;63641;46.526;24.612;2022-12-18T01:36:26;98289.75;;;1.94;76.22
75146;BME280;63641;46.526;24.612;2022-12-18T01:38:53;98305.78;;;1.94;76.07
75146;BME280;63641;46.526;24.612;2022-12-18T01:41:24;98295.72;;;1.89;76.46
75146;BME280;63641;46.526;24.612;2022-12-18T01:43:55;98303.31;;;1.92;76.02
75146;BME280;63641;46.526;24.612;2022-12-18T01:46:26;98306.59;;;1.94;75.92
75146;BME280;63641;46.526;24.612;2022-12-18T01:48:56;98301.06;;;1.89;76.02
75146;BME280;63641;46.526;24.612;2022-12-18T01:51:23;98317.28;;;1.94;76.21
75146;BME280;63641;46.526;24.612;2022-12-18T01:53:52;98316.47;;;1.94;76.22
75146;BME280;63641;46.526;24.612;2022-12-18T01:56:20;98319.75;;;1.96;75.96
75146;BME280;63641;46.526;24.612;2022-12-18T01:59:03;98311.13;;;1.94;76.07
75146;BME280;63641;46.526;24.612;2022-12-18T02:01:32;98319.38;;;1.99;75.81
75146;BME280;63641;46.526;24.612;2022-12-18T02:04:21;98318.13;;;2.02;75.98
75146;BME280;63641;46.526;24.612;2022-12-18T02:12:53;98319.38;;;1.99;75.78
75146;BME280;63641;46.526;24.612;2022-12-18T02:15:24;98332.28;;;2.02;75.93
75146;BME280;63641;46.526;24.612;2022-12-18T02:18:10;98339.06;;;2.05;75.95
75146;BME280;63641;46.526;24.612;2022-12-18T02:20:45;98329.44;;;2.04;75.81
75146;BME280;63641;46.526;24.612;2022-12-18T02:28:53;98335.78;;;1.96;75.90
75146;BME280;63641;46.526;24.612;2022-12-18T02:31:24;98349.53;;;1.93;75.92
75146;BME280;63641;46.526;24.612;2022-12-18T02:33:55;98349.72;;;1.91;75.86
75146;BME280;63641;46.526;24.612;2022-12-18T02:36:24;98349.31;;;1.88;75.94
75146;BME280;63641;46.526;24.612;2022-12-18T02:38:52;98347.03;;;1.85;75.70
75146;BME280;63641;46.526;24.612;2022-12-18T02:41:20;98354.41;;;1.83;75.82
75146;BME280;63641;46.526;24.612;2022-12-18T02:44:00;98361.81;;;1.81;75.79
75146;BME280;63641;46.526;24.612;2022-12-18T02:46:32;98358.88;;;1.76;75.49
75146;BME280;63641;46.526;24.612;2022-12-18T02:54:39;98372.63;;;1.66;75.63
75146;BME280;63641;46.526;24.612;2022-12-18T02:57:45;98371.97;;;1.64;75.73
75146;BME280;63641;46.526;24.612;2022-12-18T03:00:16;98376.50;;;1.63;75.69
75146;BME280;63641;46.526;24.612;2022-12-18T03:02:56;98372.38;;;1.61;75.54
75146;BME280;63641;46.526;24.612;2022-12-18T03:05:50;98377.53;;;1.62;75.54
75146;BME280;63641;46.526;24.612;2022-12-18T03:08:22;98377.53;;;1.62;75.73
75146;BME280;63641;46.526;24.612;2022-12-18T03:11:11;98377.97;;;1.66;75.44
75146;BME280;63641;46.526;24.612;2022-12-18T03:13:52;98387.59;;;1.67;75.52
75146;BME280;63641;46.526;24.612;2022-12-18T03:16:28;98383.47;;;1.64;75.54
75146;BME280;63641;46.526;24.612;2022-12-18T03:19:00;98398.28;;;1.67;75.38
75146;BME280;63641;46.526;24.612;2022-12-18T03:21:40;98398.28;;;1.67;75.23
75146;BME280;63641;46.526;24.612;2022-12-18T03:24:09;98407.47;;;1.64;75.38
75146;BME280;63641;46.526;24.612;2022-12-18T03:26:41;98412.44;;;1.67;75.49
75146;BME280;63641;46.526;24.612;2022-12-18T03:29:17;98418.41;;;1.69;75.35
75146;BME280;63641;46.526;24.612;2022-12-18T03:31:54;98409.13;;;1.65;75.52
75146;BME280;63641;46.526;24.612;2022-12-18T03:34:29;98413.06;;;1.69;75.55
75146;BME280;63641;46.526;24.612;2022-12-18T03:36:58;98415.53;;;1.71;75.33
75146;BME280;63641;46.526;24.612;2022-12-18T03:39:25;98427.66;;;1.74;75.32
75146;BME280;63641;46.526;24.612;2022-12-18T03:41:55;98430.94;;;1.76;75.49
75146;BME280;63641;46.526;24.612;2022-12-18T03:44:32;98431.56;;;1.78;75.22
75146;BME280;63641;46.526;24.612;2022-12-18T03:47:20;98441.22;;;1.79;75.06
75146;BME280;63641;46.526;24.612;2022-12-18T03:53:30;98447.75;;;1.76;74.98
75146;BME280;63641;46.526;24.612;2022-12-18T03:56:00;98462.97;;;1.76;75.25
75146;BME280;63641;46.526;24.612;2022-12-18T03:58:28;98452.28;;;1.76;75.17
75146;BME280;63641;46.526;24.612;2022-12-18T04:00:59;98465.84;;;1.74;74.93
75146;BME280;63641;46.526;24.612;2022-12-18T04:03:28;98465.19;;;1.72;75.09
75146;BME280;63641;46.526;24.612;2022-12-18T04:05:59;98469.09;;;1.69;75.03
75146;BME280;63641;46.526;24.612;2022-12-18T04:08:27;98464.16;;;1.66;74.86
75146;BME280;63641;46.526;24.612;2022-12-18T04:10:54;98461.88;;;1.63;75.11
75146;BME280;63641;46.526;24.612;2022-12-18T04:13:28;98457.94;;;1.59;75.03
75146;BME280;63641;46.526;24.612;2022-12-18T04:15:56;98468.41;;;1.61;75.16
75146;BME280;63641;46.526;24.612;2022-12-18T04:18:23;98474.38;;;1.63;74.76
75146;BME280;63641;46.526;24.612;2022-12-18T04:20:49;98480.53;;;1.63;74.55
75146;BME280;63641;46.526;24.612;2022-12-18T04:23:16;98488.72;;;1.62;74.83
75146;BME280;63641;46.526;24.612;2022-12-18T04:25:43;98485.63;;;1.58;74.36
75146;BME280;63641;46.526;24.612;2022-12-18T04:28:09;98488.06;;;1.53;74.42
75146;BME280;63641;46.526;24.612;2022-12-18T04:30:36;98489.47;;;1.49;74.36
75146;BME280;63641;46.526;24.612;2022-12-18T04:33:03;98498.28;;;1.50;74.65
75146;BME280;63641;46.526;24.612;2022-12-18T04:35:29;98505.28;;;1.51;74.77
75146;BME280;63641;46.526;24.612;2022-12-18T04:37:56;98504.66;;;1.49;74.44
75146;BME280;63641;46.526;24.612;2022-12-18T04:40:23;98507.66;;;1.39;74.26
75146;BME280;63641;46.526;24.612;2022-12-18T04:42:50;98512.38;;;1.37;74.24
75146;BME280;63641;46.526;24.612;2022-12-18T04:45:17;98516.81;;;1.30;74.43
75146;BME280;63641;46.526;24.612;2022-12-18T04:47:44;98520.88;;;1.26;74.23
75146;BME280;63641;46.526;24.612;2022-12-18T04:50:11;98525.81;;;1.29;74.36
75146;BME280;63641;46.526;24.612;2022-12-18T04:52:38;98527.88;;;1.27;74.27
75146;BME280;63641;46.526;24.612;2022-12-18T04:55:05;98539.78;;;1.31;74.00
75146;BME280;63641;46.526;24.612;2022-12-18T04:57:31;98538.31;;;1.28;74.00
75146;BME280;63641;46.526;24.612;2022-12-18T04:59:58;98545.50;;;1.28;73.81
75146;BME280;63641;46.526;24.612;2022-12-18T05:02:25;98541.00;;;1.28;73.70
75146;BME280;63641;46.526;24.612;2022-12-18T05:04:52;98543.88;;;1.27;73.47
75146;BME280;63641;46.526;24.612;2022-12-18T05:07:19;98551.22;;;1.25;73.55
75146;BME280;63641;46.526;24.612;2022-12-18T05:09:46;98562.69;;;1.25;73.42
75146;BME280;63641;46.526;24.612;2022-12-18T05:12:12;98558.59;;;1.23;73.42
75146;BME280;63641;46.526;24.612;2022-12-18T05:14:39;98560.03;;;1.25;73.43
75146;BME280;63641;46.526;24.612;2022-12-18T05:17:06;98561.06;;;1.24;73.14
75146;BME280;63641;46.526;24.612;2022-12-18T05:19:32;98570.91;;;1.24;72.84
75146;BME280;63641;46.526;24.612;2022-12-18T05:22:00;98580.31;;;1.19;72.68
75146;BME280;63641;46.526;24.612;2022-12-18T05:24:27;98588.22;;;1.13;72.80
75146;BME280;63641;46.526;24.612;2022-12-18T05:26:54;98583.84;;;1.05;72.85
75146;BME280;63641;46.526;24.612;2022-12-18T05:29:21;98589.16;;;1.05;72.80
75146;BME280;63641;46.526;24.612;2022-12-18T05:31:47;98598.19;;;1.04;72.86
75146;BME280;63641;46.526;24.612;2022-12-18T05:34:14;98598.56;;;1.01;72.74
75146;BME280;63641;46.526;24.612;2022-12-18T05:36:41;98607.13;;;0.96;72.43
75146;BME280;63641;46.526;24.612;2022-12-18T05:39:08;98603.19;;;0.92;72.45
75146;BME280;63641;46.526;24.612;2022-12-18T05:41:35;98610.75;;;0.89;72.03
75146;BME280;63641;46.526;24.612;2022-12-18T05:44:02;98602.66;;;0.82;72.26
75146;BME280;63641;46.526;24.612;2022-12-18T05:46:30;98612.03;;;0.78;72.08
75146;BME280;63641;46.526;24.612;2022-12-18T05:48:59;98618.94;;;0.72;72.18
75146;BME280;63641;46.526;24.612;2022-12-18T05:51:27;98628.56;;;0.73;72.34
75146;BME280;63641;46.526;24.612;2022-12-18T05:53:54;98629.59;;;0.72;72.27
75146;BME280;63641;46.526;24.612;2022-12-18T05:56:22;98638.41;;;0.73;72.01
75146;BME280;63641;46.526;24.612;2022-12-18T05:58:53;98630.41;;;0.73;72.10
75146;BME280;63641;46.526;24.612;2022-12-18T06:01:23;98638.41;;;0.73;72.11
75146;BME280;63641;46.526;24.612;2022-12-18T06:03:50;98645.22;;;0.76;72.22
75146;BME280;63641;46.526;24.612;2022-12-18T06:06:25;98635.13;;;0.71;72.01
75146;BME280;63641;46.526;24.612;2022-12-18T06:08:53;98654.47;;;0.80;71.73
75146;BME280;63641;46.526;24.612;2022-12-18T06:11:23;98656.13;;;0.81;71.92
75146;BME280;63641;46.526;24.612;2022-12-18T06:13:52;98665.41;;;0.85;71.94
75146;BME280;63641;46.526;24.612;2022-12-18T06:16:24;98663.75;;;0.84;71.79
75146;BME280;63641;46.526;24.612;2022-12-18T06:18:52;98674.25;;;0.85;71.75
75146;BME280;63641;46.526;24.612;2022-12-18T06:21:19;98677.53;;;0.87;71.87
75146;BME280;63641;46.526;24.612;2022-12-18T06:23:46;98673.84;;;0.88;71.69
75146;BME280;63641;46.526;24.612;2022-12-18T06:26:13;98677.16;;;0.90;71.66
75146;BME280;63641;46.526;24.612;2022-12-18T06:28:40;98672.19;;;0.87;71.63
75146;BME280;63641;46.526;24.612;2022-12-18T06:31:08;98690.69;;;0.89;71.70
75146;BME280;63641;46.526;24.612;2022-12-18T06:33:36;98695.00;;;0.90;71.74
75146;BME280;63641;46.526;24.612;2022-12-18T06:36:10;98691.88;;;0.86;71.78
75146;BME280;63641;46.526;24.612;2022-12-18T06:38:39;98695.81;;;0.90;71.82
75146;BME280;63641;46.526;24.612;2022-12-18T06:41:10;98694.25;;;0.96;71.46
75146;BME280;63641;46.526;24.612;2022-12-18T06:43:40;98701.41;;;0.95;71.76
75146;BME280;63641;46.526;24.612;2022-12-18T06:46:08;98700.88;;;1.00;71.60
75146;BME280;63641;46.526;24.612;2022-12-18T06:48:35;98707.19;;;0.99;71.54
75146;BME280;63641;46.526;24.612;2022-12-18T06:51:02;98709.31;;;1.04;71.69
75146;BME280;63641;46.526;24.612;2022-12-18T06:53:29;98715.47;;;1.04;71.79
75146;BME280;63641;46.526;24.612;2022-12-18T06:56:04;98718.97;;;1.05;71.46
75146;BME280;63641;46.526;24.612;2022-12-18T06:58:35;98715.47;;;1.04;71.63
75146;BME280;63641;46.526;24.612;2022-12-18T07:01:04;98720.81;;;1.04;71.85
75146;BME280;63641;46.526;24.612;2022-12-18T07:03:31;98733.09;;;1.05;71.56
75146;BME280;63641;46.526;24.612;2022-12-18T07:05:58;98735.56;;;1.07;71.39
75146;BME280;63641;46.526;24.612;2022-12-18T07:08:25;98743.41;;;1.08;71.62
75146;BME280;63641;46.526;24.612;2022-12-18T07:10:52;98747.09;;;1.07;71.29
75146;BME280;63641;46.526;24.612;2022-12-18T07:13:22;98745.03;;;1.09;71.40
75146;BME280;63641;46.526;24.612;2022-12-18T07:15:49;98752.41;;;1.07;71.30
75146;BME280;63641;46.526;24.612;2022-12-18T07:18:15;98755.09;;;1.07;71.44
75146;BME280;63641;46.526;24.612;2022-12-18T07:20:47;98753.59;;;1.05;71.53
75146;BME280;63641;46.526;24.612;2022-12-18T07:23:14;98759.31;;;1.02;71.27
75146;BME280;63641;46.526;24.612;2022-12-18T07:25:40;98757.00;;;0.99;71.53
75146;BME280;63641;46.526;24.612;2022-12-18T07:28:07;98762.53;;;0.97;71.59
75146;BME280;63641;46.526;24.612;2022-12-18T07:30:42;98776.47;;;0.99;71.45
75146;BME280;63641;46.526;24.612;2022-12-18T07:33:13;98777.50;;;0.98;71.44
75146;BME280;63641;46.526;24.612;2022-12-18T07:35:40;98780.16;;;0.98;71.33
75146;BME280;63641;46.526;24.612;2022-12-18T07:38:07;98771.16;;;0.99;71.09
75146;BME280;63641;46.526;24.612;2022-12-18T07:40:33;98775.28;;;1.02;71.49
75146;BME280;63641;46.526;24.612;2022-12-18T07:43:00;98785.41;;;1.06;71.02
75146;BME280;63641;46.526;24.612;2022-12-18T07:45:27;98780.72;;;1.08;71.19
75146;BME280;63641;46.526;24.612;2022-12-18T07:47:54;98795.34;;;1.12;70.99
75146;BME280;63641;46.526;24.612;2022-12-18T07:50:20;98799.94;;;1.18;71.30
75146;BME280;63641;46.526;24.612;2022-12-18T07:52:47;98792.31;;;1.15;70.78
75146;BME280;63641;46.526;24.612;2022-12-18T07:55:14;98787.34;;;1.12;71.26
75146;BME280;63641;46.526;24.612;2022-12-18T07:57:41;98809.94;;;1.16;70.89
75146;BME280;63641;46.526;24.612;2022-12-18T08:00:16;98814.25;;;1.17;70.71
75146;BME280;63641;46.526;24.612;2022-12-18T08:02:44;98813.91;;;1.20;71.03
75146;BME280;63641;46.526;24.612;2022-12-18T08:05:11;98824.84;;;1.26;71.08
75146;BME280;63641;46.526;24.612;2022-12-18T08:07:37;98824.09;;;1.32;70.75
75146;BME280;63641;46.526;24.612;2022-12-18T08:10:05;98821.44;;;1.32;70.70
75146;BME280;63641;46.526;24.612;2022-12-18T08:12:32;98831.56;;;1.36;70.50
75146;BME280;63641;46.526;24.612;2022-12-18T08:14:59;98831.09;;;1.33;70.67
75146;BME280;63641;46.526;24.612;2022-12-18T08:17:26;98838.44;;;1.31;70.71
75146;BME280;63641;46.526;24.612;2022-12-18T08:19:52;98841.56;;;1.34;70.78
75146;BME280;63641;46.526;24.612;2022-12-18T08:22:19;98834.41;;;1.35;70.57
75146;BME280;63641;46.526;24.612;2022-12-18T08:24:46;98845.06;;;1.35;70.44
75146;BME280;63641;46.526;24.612;2022-12-18T08:27:12;98842.59;;;1.33;70.57
75146;BME280;63641;46.526;24.612;2022-12-18T08:29:55;98852.81;;;1.30;70.41
75146;BME280;63641;46.526;24.612;2022-12-18T08:32:27;98854.34;;;1.24;70.26
75146;BME280;63641;46.526;24.612;2022-12-18T08:34:54;98854.25;;;1.17;70.14
75146;BME280;63641;46.526;24.612;2022-12-18T08:37:21;98845.72;;;1.07;70.25
75146;BME280;63641;46.526;24.612;2022-12-18T08:39:52;98852.69;;;1.08;70.16
75146;BME280;63641;46.526;24.612;2022-12-18T08:42:18;98855.09;;;1.03;69.84
75146;BME280;63641;46.526;24.612;2022-12-18T08:45:04;98850.28;;;0.99;70.08
75146;BME280;63641;46.526;24.612;2022-12-18T08:47:31;98851.09;;;0.99;70.00
75146;BME280;63641;46.526;24.612;2022-12-18T08:49:57;98851.09;;;0.99;70.16
75146;BME280;63641;46.526;24.612;2022-12-18T08:52:26;98852.78;;;1.00;70.38
75146;BME280;63641;46.526;24.612;2022-12-18T08:54:54;98852.03;;;1.06;70.34
75146;BME280;63641;46.526;24.612;2022-12-18T08:57:21;98850.03;;;1.08;70.09
75146;BME280;63641;46.526;24.612;2022-12-18T08:59:48;98849.22;;;1.08;69.85
75146;BME280;63641;46.526;24.612;2022-12-18T09:02:14;98840.91;;;1.03;69.83
75146;BME280;63641;46.526;24.612;2022-12-18T09:04:41;98859.56;;;1.03;69.88
75146;BME280;63641;46.526;24.612;2022-12-18T09:07:08;98854.25;;;1.03;70.08
75146;BME280;63641;46.526;24.612;2022-12-18T09:09:35;98861.50;;;1.09;69.93
75146;BME280;63641;46.526;24.612;2022-12-18T09:12:02;98855.72;;;1.05;69.63
75146;BME280;63641;46.526;24.612;2022-12-18T09:14:31;98850.75;;;1.02;69.70
75146;BME280;63641;46.526;24.612;2022-12-18T09:16:58;98855.91;;;1.04;69.57
75146;BME280;63641;46.526;24.612;2022-12-18T09:19:25;98860.44;;;1.03;69.38
75146;BME280;63641;46.526;24.612;2022-12-18T09:21:52;98856.44;;;0.99;69.51
75146;BME280;63641;46.526;24.612;2022-12-18T09:24:18;98857.66;;;0.96;69.57
75146;BME280;63641;46.526;24.612;2022-12-18T09:26:45;98862.53;;;0.93;69.30
75146;BME280;63641;46.526;24.612;2022-12-18T09:29:14;98862.69;;;0.91;69.16
75146;BME280;63641;46.526;24.612;2022-12-18T09:31:42;98882.56;;;0.89;69.18
75146;BME280;63641;46.526;24.612;2022-12-18T09:34:08;98877.03;;;0.90;69.49
75146;BME280;63641;46.526;24.612;2022-12-18T09:36:36;98865.00;;;0.94;69.41
75146;BME280;63641;46.526;24.612;2022-12-18T09:39:03;98872.63;;;0.98;69.04
75146;BME280;63641;46.526;24.612;2022-12-18T09:41:41;98870.16;;;0.96;69.08
75146;BME280;63641;46.526;24.612;2022-12-18T09:44:32;98868.66;;;0.93;68.95
75146;BME280;63641;46.526;24.612;2022-12-18T09:47:14;98864.72;;;0.89;69.24
75146;BME280;63641;46.526;24.612;2022-12-18T09:49:48;98873.06;;;0.86;68.82
75146;BME280;63641;46.526;24.612;2022-12-18T09:52:44;98870.13;;;0.81;68.98
75146;BME280;63641;46.526;24.612;2022-12-18T09:55:41;98868.00;;;0.77;68.76
75146;BME280;63641;46.526;24.612;2022-12-18T10:00:36;98867.72;;;0.71;69.12
75146;BME280;63641;46.526;24.612;2022-12-18T10:03:12;98875.16;;;0.76;69.18
75146;BME280;63641;46.526;24.612;2022-12-18T10:06:10;98874.59;;;0.81;68.91
75146;BME280;63641;46.526;24.612;2022-12-18T10:14:01;98871.50;;;0.92;68.85
75146;BME280;63641;46.526;24.612;2022-12-18T10:19:33;98888.44;;;0.99;69.16
75146;BME280;63641;46.526;24.612;2022-12-18T10:27:24;98869.97;;;1.12;68.86
75146;BME280;63641;46.526;24.612;2022-12-18T10:29:52;98877.63;;;1.15;68.91
75146;BME280;63641;46.526;24.612;2022-12-18T10:32:24;98871.91;;;1.18;69.02
75146;BME280;63641;46.526;24.612;2022-12-18T10:34:55;98878.53;;;1.23;68.74
75146;BME280;63641;46.526;24.612;2022-12-18T10:37:28;98871.38;;;1.23;68.71
75146;BME280;63641;46.526;24.612;2022-12-18T10:40:11;98871.16;;;1.25;68.73
75146;BME280;63641;46.526;24.612;2022-12-18T10:42:57;98882.31;;;1.28;68.91
75146;BME280;63641;46.526;24.612;2022-12-18T10:45:29;98883.50;;;1.26;68.69
75146;BME280;63641;46.526;24.612;2022-12-18T10:47:56;98867.41;;;1.19;69.07
75146;BME280;63641;46.526;24.612;2022-12-18T10:50:34;98878.91;;;1.19;68.85
75146;BME280;63641;46.526;24.612;2022-12-18T10:53:24;98880.09;;;1.17;68.82
75146;BME280;63641;46.526;24.612;2022-12-18T10:55:53;98877.25;;;1.18;68.67
75146;BME280;63641;46.526;24.612;2022-12-18T10:58:23;98880.19;;;1.24;68.82
75146;BME280;63641;46.526;24.612;2022-12-18T11:03:34;98891.78;;;1.31;68.33
75146;BME280;63641;46.526;24.612;2022-12-18T11:06:10;98880.84;;;1.26;68.35
75146;BME280;63641;46.526;24.612;2022-12-18T11:08:38;98889.22;;;1.23;68.33
75146;BME280;63641;46.526;24.612;2022-12-18T11:11:15;98892.03;;;1.21;68.62
75146;BME280;63641;46.526;24.612;2022-12-18T11:14:02;98895.81;;;1.27;68.43
75146;BME280;63641;46.526;24.612;2022-12-18T11:16:31;98894.44;;;1.31;68.27
75146;BME280;63641;46.526;24.612;2022-12-18T11:21:40;98891.69;;;1.39;68.29
75146;BME280;63641;46.526;24.612;2022-12-18T11:24:28;98891.31;;;1.42;68.01
75146;BME280;63641;46.526;24.612;2022-12-18T11:27:01;98898.13;;;1.44;67.95
75146;BME280;63641;46.526;24.612;2022-12-18T11:29:34;98898.59;;;1.48;68.01
75146;BME280;63641;46.526;24.612;2022-12-18T11:35:03;98910.19;;;1.55;67.70
75146;BME280;63641;46.526;24.612;2022-12-18T11:37:32;98907.13;;;1.58;67.86
75146;BME280;63641;46.526;24.612;2022-12-18T11:40:04;98912.09;;;1.61;67.74
75146;BME280;63641;46.526;24.612;2022-12-18T11:42:37;98913.56;;;1.64;67.83
75146;BME280;63641;46.526;24.612;2022-12-18T11:50:29;98911.72;;;1.64;67.90
75146;BME280;63641;46.526;24.612;2022-12-18T11:52:58;98910.34;;;1.68;67.65
75146;BME280;63641;46.526;24.612;2022-12-18T12:01:48;98909.63;;;1.75;67.77
75146;BME280;63641;46.526;24.612;2022-12-18T12:04:26;98914.84;;;1.83;67.48
75146;BME280;63641;46.526;24.612;2022-12-18T12:12:44;98921.56;;;1.79;67.63
75146;BME280;63641;46.526;24.612;2022-12-18T12:23:26;98934.47;;;1.60;67.62
75146;BME280;63641;46.526;24.612;2022-12-18T12:26:04;98943.66;;;1.58;67.38
75146;BME280;63641;46.526;24.612;2022-12-18T12:28:53;98938.16;;;1.59;67.33
75146;BME280;63641;46.526;24.612;2022-12-18T12:34:39;98950.19;;;1.55;67.50
75146;BME280;63641;46.526;24.612;2022-12-18T12:37:31;98949.09;;;1.50;67.41
75146;BME280;63641;46.526;24.612;2022-12-18T12:40:04;98964.81;;;1.44;67.40
75146;BME280;63641;46.526;24.612;2022-12-18T12:42:55;98959.66;;;1.43;67.24
75146;BME280;63641;46.526;24.612;2022-12-18T12:46:04;98959.03;;;1.41;67.35
75146;BME280;63641;46.526;24.612;2022-12-18T12:51:25;98969.38;;;1.36;67.08
75146;BME280;63641;46.526;24.612;2022-12-18T12:53:54;98962.28;;;1.28;67.45
75146;BME280;63641;46.526;24.612;2022-12-18T12:56:25;98981.25;;;1.33;67.05
75146;BME280;63641;46.526;24.612;2022-12-18T12:59:06;98985.78;;;1.33;66.97
75146;BME280;63641;46.526;24.612;2022-12-18T13:01:57;98978.75;;;1.32;67.32
75146;BME280;63641;46.526;24.612;2022-12-18T13:04:42;98978.97;;;1.30;67.32
75146;BME280;63641;46.526;24.612;2022-12-18T13:13:06;98984.47;;;1.43;67.12
75146;BME280;63641;46.526;24.612;2022-12-18T13:15:45;98983.50;;;1.44;66.96
75146;BME280;63641;46.526;24.612;2022-12-18T13:18:23;98961.94;;;1.31;67.09
75146;BME280;63641;46.526;24.612;2022-12-18T13:23:36;98980.53;;;1.54;67.24
75146;BME280;63641;46.526;24.612;2022-12-18T13:31:00;98994.66;;;1.63;66.89
75146;BME280;63641;46.526;24.612;2022-12-18T13:33:40;98995.28;;;1.65;66.95
75146;BME280;63641;46.526;24.612;2022-12-18T13:36:32;99001.25;;;1.67;67.08
75146;BME280;63641;46.526;24.612;2022-12-18T13:41:53;98999.16;;;1.62;67.01
75146;BME280;63641;46.526;24.612;2022-12-18T13:46:59;99009.16;;;1.60;66.92
75146;BME280;63641;46.526;24.612;2022-12-18T13:49:40;99010.34;;;1.58;66.77
75146;BME280;63641;46.526;24.612;2022-12-18T13:54:47;99018.53;;;1.41;67.14
75146;BME280;63641;46.526;24.612;2022-12-18T13:57:32;99013.75;;;1.37;66.96
75146;BME280;63641;46.526;24.612;2022-12-18T14:02:45;99019.13;;;1.29;67.09
75146;BME280;63641;46.526;24.612;2022-12-18T14:07:53;99019.13;;;1.29;66.96
75146;BME280;63641;46.526;24.612;2022-12-18T14:10:22;99025.19;;;1.23;67.26
75146;BME280;63641;46.526;24.612;2022-12-18T14:13:10;99026.56;;;1.18;67.11
75146;BME280;63641;46.526;24.612;2022-12-18T14:15:44;99032.41;;;1.14;67.38
75146;BME280;63641;46.526;24.612;2022-12-18T14:21:00;99031.47;;;1.07;67.21
75146;BME280;63641;46.526;24.612;2022-12-18T14:23:40;99032.00;;;1.02;67.33
75146;BME280;63641;46.526;24.612;2022-12-18T14:26:24;99033.69;;;1.03;67.03
75146;BME280;63641;46.526;24.612;2022-12-18T14:28:54;99042.66;;;1.02;67.02
75146;BME280;63641;46.526;24.612;2022-12-18T14:31:24;99042.19;;;0.99;66.71
75146;BME280;63641;46.526;24.612;2022-12-18T14:33:52;99054.00;;;1.04;66.97
75146;BME280;63641;46.526;24.612;2022-12-18T14:36:27;99043.34;;;1.04;66.97
75146;BME280;63641;46.526;24.612;2022-12-18T14:38:56;99049.50;;;1.05;66.63
75146;BME280;63641;46.526;24.612;2022-12-18T14:41:24;99055.47;;;1.07;66.52
75146;BME280;63641;46.526;24.612;2022-12-18T14:43:53;99051.34;;;1.04;66.63
75146;BME280;63641;46.526;24.612;2022-12-18T14:46:35;99046.34;;;1.01;66.86
75146;BME280;63641;46.526;24.612;2022-12-18T14:51:54;99051.34;;;1.04;66.84
75146;BME280;63641;46.526;24.612;2022-12-18T14:54:22;99054.47;;;1.08;66.54
75146;BME280;63641;46.526;24.612;2022-12-18T14:57:27;99058.44;;;1.12;66.76
75146;BME280;63641;46.526;24.612;2022-12-18T15:00:11;99058.91;;;1.15;66.40
75146;BME280;63641;46.526;24.612;2022-12-18T15:02:42;99062.22;;;1.17;66.63
75146;BME280;63641;46.526;24.612;2022-12-18T15:07:50;99069.56;;;1.15;66.68
75146;BME280;63641;46.526;24.612;2022-12-18T15:10:23;99069.25;;;1.10;66.45
75146;BME280;63641;46.526;24.612;2022-12-18T15:18:20;99087.44;;;1.07;66.54
75146;BME280;63641;46.526;24.612;2022-12-18T15:20:53;99085.78;;;1.06;66.87